Bei Facebook empfehlenBei Twitter postenGoogle plusPinterest

Das Wetter im Erzgebirge am 18.12.2015

Wetter und Klima am 18.12.2015 Holzhau im Erzgebirge (630m ü.NN)
Letzte gemessene Temperatur und Uhrzeit der Messung23:45:00 Uhr2.90 °C
Temperatur (Maximum / Höchstwert) und Uhrzeit der Messung13:30:00 Uhr8.30 °C
Temperatur (Minimum / Tiefstwert) und Uhrzeit der Messung23:45:002.90 °C
Errechneter Absolutwert der Temperaturschwankungen zwischen Tmin und Tmax des Tages5.40 K
Errechnete Tagesmitteltemperatur6.15521 °C
Gesamt - Niederschlag des Tages (in flüssiger Form)7.26 Liter / m²
Luftdruck (Maximum / Höchstwert) und Zeitpunkt der Messung23:30:00 Uhr1021.10 hPa
Luftdruck (Minimum / Tiefstwert) und Zeitpunkt der Messung07:00:00 Uhr1017.30 hPa
Errechneter Absolutwert der Luftdruckschwankungen des Tages3.80 hPa
Höchste gemessene Windgeschwindigkeit und Uhrzeit der Messung18:30:00 Uhr183.60 km/h
Errechnete Windhäufigkeit in Relation zu den Messwerten des Tages6.25000 %
Niedrigste Windkühle (Windchill) und Zeitpunkt der Messung18:30:00 Uhr-1.40 °C
Taupunkt (Maximum / Höchstwert) und Uhrzeit der Messung13:30:00 Uhr7.90 °C
Taupunkt (Minimum / Tiefstwert) und Uhrzeit der Messung23:45:002.30 °C
Anzahl der automatisch eingelesenen Messwerte 96

Detaillierte Wetter- und Klima- Messwerte für den 18.12.2015 in Holzhau im Erzgebirge (630m ü.NN)
ZeitTemperaturLuftdruckRel. LuftfeuchteWindWindrichtungWindchillTaupunktNiederschlag l/m²
23:45:002.90 °C1021.00 hPa96.00 %2.30 °C7.26
23:30:003.30 °C1021.10 hPa96.00 %2.70 °C7.26
23:15:003.50 °C1021.00 hPa97.00 %3.10 °C7.26
23:00:004.00 °C1021.10 hPa97.00 %3.60 °C7.26
22:45:004.20 °C1020.90 hPa97.00 %2.52 km/hSO4.20 °C3.80 °C7.26
22:30:004.40 °C1021.10 hPa97.00 %4.00 °C7.26
22:15:004.80 °C1020.90 hPa97.00 %4.40 °C7.26
22:00:005.00 °C1021.00 hPa97.00 %4.60 °C7.26
21:45:005.60 °C1021.00 hPa97.00 %5.20 °C7.26
21:30:006.40 °C1020.90 hPa97.00 %6.00 °C7.26
21:15:006.80 °C1020.80 hPa97.00 %6.40 °C7.26
21:00:006.90 °C1020.70 hPa97.00 %6.50 °C7.26
20:45:007.10 °C1021.00 hPa97.00 %6.70 °C7.26
20:30:007.20 °C1021.00 hPa97.00 %6.80 °C7.26
20:15:007.30 °C1020.90 hPa97.00 %6.90 °C7.26
20:00:007.30 °C1020.60 hPa97.00 %6.90 °C7.26
19:45:007.40 °C1020.50 hPa97.00 %7.00 °C7.26
19:30:007.40 °C1020.40 hPa97.00 %7.00 °C7.26
19:15:007.50 °C1020.10 hPa97.00 %7.10 °C7.26
19:00:007.50 °C1020.00 hPa97.00 %7.10 °C7.26
18:45:007.60 °C1019.80 hPa97.00 %7.20 °C7.26
18:30:007.60 °C1019.70 hPa97.00 %183.60 km/hWNW-1.40 °C7.20 °C7.26
18:15:007.60 °C1019.80 hPa97.00 %7.20 °C7.26
18:00:007.60 °C1019.70 hPa97.00 %7.20 °C7.26
17:45:007.80 °C1019.60 hPa97.00 %7.40 °C7.26
17:30:007.80 °C1019.90 hPa97.00 %7.40 °C7.26
17:15:007.80 °C1019.60 hPa97.00 %7.40 °C7.26
17:00:007.80 °C1019.60 hPa97.00 %7.40 °C7.26
16:45:007.80 °C1019.50 hPa97.00 %10.08 km/hSW6.00 °C7.40 °C7.26
16:30:007.80 °C1019.70 hPa97.00 %7.40 °C7.26
16:15:007.80 °C1019.40 hPa97.00 %7.40 °C7.26
16:00:007.90 °C1019.00 hPa97.00 %7.50 °C7.26
15:45:007.90 °C1019.20 hPa97.00 %7.50 °C7.26
15:30:007.90 °C1018.90 hPa97.00 %7.50 °C7.26
15:15:008.10 °C1018.80 hPa97.00 %7.70 °C7.26
15:00:008.10 °C1018.50 hPa97.00 %7.70 °C7.26
14:45:008.10 °C1018.40 hPa97.00 %7.70 °C6.22
14:30:008.10 °C1018.40 hPa97.00 %7.70 °C6.22
14:15:008.10 °C1018.50 hPa97.00 %5.04 km/hWNW7.60 °C7.70 °C6.22
14:00:008.10 °C1018.50 hPa97.00 %7.70 °C5.70
13:45:008.20 °C1018.30 hPa97.00 %7.80 °C5.18
13:30:008.30 °C1018.60 hPa97.00 %7.90 °C4.67
13:15:008.30 °C1018.50 hPa97.00 %7.90 °C4.15
13:00:008.30 °C1018.40 hPa97.00 %7.90 °C3.63
12:45:008.20 °C1018.30 hPa97.00 %7.80 °C3.63
12:30:008.10 °C1018.50 hPa97.00 %7.70 °C3.11
12:15:007.80 °C1018.20 hPa97.00 %7.40 °C3.11
12:00:007.80 °C1018.00 hPa97.00 %7.40 °C3.11
11:45:007.60 °C1018.10 hPa97.00 %7.20 °C3.11
11:30:007.50 °C1018.20 hPa97.00 %7.10 °C3.11
11:15:007.50 °C1018.30 hPa97.00 %7.10 °C2.59
11:00:007.40 °C1018.30 hPa97.00 %7.00 °C2.08
10:45:007.20 °C1018.30 hPa97.00 %6.80 °C1.56
10:30:006.90 °C1018.30 hPa97.00 %6.50 °C1.56
10:15:006.80 °C1018.10 hPa97.00 %6.40 °C1.04
10:00:006.50 °C1018.20 hPa97.00 %6.10 °C1.04
09:45:006.20 °C1018.20 hPa97.00 %5.80 °C1.04
09:30:005.90 °C1018.30 hPa97.00 %5.50 °C0.52
09:15:005.80 °C1018.20 hPa97.00 %5.40 °C0.52
09:00:005.60 °C1018.10 hPa97.00 %5.20 °C0.52
08:45:005.80 °C1018.00 hPa97.00 %5.40 °C0.52
08:30:005.50 °C1017.80 hPa96.00 %4.90 °C0.52
08:15:005.30 °C1017.70 hPa96.00 %4.70 °C0.52
08:00:005.30 °C1017.50 hPa96.00 %4.70 °C0.52
07:45:005.20 °C1017.50 hPa96.00 %2.52 km/hOSO5.20 °C4.60 °C0.52
07:30:005.10 °C1017.50 hPa96.00 %4.50 °C0.52
07:15:005.10 °C1017.50 hPa96.00 %4.50 °C0.52
07:00:004.90 °C1017.30 hPa96.00 %1.44 km/hOSO4.90 °C4.30 °C0.52
06:45:004.40 °C1017.50 hPa96.00 %3.80 °C0.52
06:30:004.30 °C1017.80 hPa96.00 %3.70 °C0.52
06:15:004.40 °C1017.60 hPa96.00 %3.80 °C0.52
06:00:004.50 °C1017.60 hPa96.00 %3.90 °C0.52
05:45:004.50 °C1017.80 hPa96.00 %3.90 °C0.52
05:30:004.60 °C1017.90 hPa96.00 %4.00 °C0.52
05:15:004.60 °C1017.90 hPa96.00 %4.00 °C0.52
05:00:004.70 °C1018.10 hPa96.00 %4.10 °C0.52
04:45:004.40 °C1018.30 hPa96.00 %3.80 °C0.52
04:30:003.90 °C1018.60 hPa96.00 %3.30 °C0.52
04:15:003.90 °C1018.50 hPa96.00 %3.30 °C0.52
04:00:003.60 °C1018.70 hPa96.00 %3.00 °C0.52
03:45:003.70 °C1018.60 hPa96.00 %3.10 °C0.52
03:30:003.80 °C1018.70 hPa96.00 %3.20 °C0.52
03:15:003.60 °C1018.80 hPa96.00 %3.00 °C0.52
03:00:003.90 °C1018.80 hPa96.00 %3.30 °C0.52
02:45:004.20 °C1019.30 hPa96.00 %3.60 °C0.52
02:30:004.50 °C1019.30 hPa96.00 %3.90 °C0.52
02:15:004.90 °C1019.30 hPa96.00 %4.30 °C0.52
02:00:005.10 °C1019.10 hPa96.00 %4.50 °C 
01:45:005.30 °C1019.30 hPa96.00 %4.70 °C 
01:30:005.40 °C1019.20 hPa96.00 %4.80 °C 
01:15:005.40 °C1019.40 hPa96.00 %4.80 °C 
01:00:005.50 °C1019.30 hPa96.00 %4.90 °C 
00:45:005.40 °C1019.40 hPa96.00 %4.80 °C 
00:30:005.50 °C1019.60 hPa96.00 %4.90 °C 
00:15:005.50 °C1019.50 hPa96.00 %4.90 °C 
00:00:005.50 °C1019.40 hPa96.00 %4.90 °C 

Permanenter Link zu dieser Seite: Wetter im Erzgebirge am 18.12.2015
Performance-Info: Die Erstellung der Seite / Statistik(en) / Tabelle(n) erforderte 5 Datenbankserver-Abfrage(n) und dauerte 99 Millisekunden. (Dieser Messwert ist von der Gesamt-Auslastung des Servers abhängig.)
Erzgebirge - Wetter | Erzgebirge - Wetter (Mobilgeräte) | Komplette Klimadatenbank